Detalii statie UNIC PROD [00001D09]

Toti senzorii

Date Temperatura solului [C]Precipitatii [mm]Voltaj baterie [mV]Leaf Wetness [Min]HC Air temperature [C]HC Relative humidity [%]Punctul de roua [C]
medieminmaxsumaultimatimpmedieminmaxmediemediemin
2019-06-15 18:00:00 0 7206 30.91 28.02 31.86 51.49 19.5 16.9
2019-06-15 19:00:00 9.8 6874 21.5 19.69 26.52 89.52 19.2 17
2019-06-15 20:00:00 1.8 6864 19.96 19.66 20.58 100 19.9 19.6
2019-06-15 21:00:00 3.2 6844 19.57 19.49 19.68 100 19.5 19.4
2019-06-15 22:00:00 0.6 6854 19.53 19.29 19.8 41.66 0
2019-06-15 23:00:00 0 6834 18.98 18.38 19.34 8.33 0
2019-06-16 00:00:00 0.2 6826 18.53 18.23 18.9 16.66 3 0
2019-06-16 01:00:00 0 6826 18.66 17.9 18.97 58.33 0
2019-06-16 02:00:00 0 6816 17.9 17.56 18.42 91.66 0
2019-06-16 03:00:00 0 6826 17.56 16.86 18.16 0 0 0
2019-06-16 04:00:00 0 6816 17.28 16.88 17.85 0 0 0
2019-06-16 05:00:00 0 6806 16.79 16.55 17.18 0 0 0
2019-06-16 06:00:00 0 6816 16.93 16.57 17.43 0 0 0
2019-06-16 07:00:00 0 6834 18.85 17.52 19.84 0 0 0
2019-06-16 08:00:00 0 6854 20.46 19.93 20.81 0 0 0
2019-06-16 09:00:00 0 6922 21.37 20.75 21.69 0 0 0
2019-06-16 10:00:00 0 7020 23.3 21.56 25.22 0 0 0
2019-06-16 11:00:00 0 7216 26.09 25.43 27.01 82.37 22.7 21.9
2019-06-16 12:00:00 0 7216 28.37 27.54 29.56 75.97 23.5 22.2
2019-06-16 13:00:00 0 7226 30.54 29.65 31.66 61.55 22.1 20.3
2019-06-16 14:00:00 0 7216 31.32 30.25 31.95 55.25 21 19.4
2019-06-16 15:00:00 0 7216 31.93 31.28 32.66 51.54 20.4 19.2
2019-06-16 16:00:00 0 7108 31.87 30.39 33.24 48.27 19.3 17.8
2019-06-16 17:00:00 0 7226 31.73 30.45 32.47 51.21 20.1 18.5
2019-06-16 18:00:00 0 7206 29.69 26.48 32.39 54.29 19 16.8
2019-06-16 19:00:00 0 7030 28.31 27.52 28.86 63.27 20.4 19.3
2019-06-16 20:00:00 0 6874 27.71 26.24 28.36 70.16 21.5 19.5
2019-06-16 21:00:00 0 6864 24.39 23.05 25.74 95.82 23.5 22.5
2019-06-16 22:00:00 0 6854 22.35 21.69 23.16 100 22.3 21.6
2019-06-16 23:00:00 0 6854 21.13 20.39 21.64 100 21 20.3
2019-06-17 00:00:00 0 6854 19.79 18.73 20.36 100 19.7 18.7
2019-06-17 01:00:00 0 6844 18.56 17.74 19.92 100 18.5 17.7
2019-06-17 02:00:00 0 6834 17.74 16.96 18.5 100 17.7 16.9
2019-06-17 03:00:00 0 6826 16.65 16.1 17.56 100 16.6 16.1
2019-06-17 04:00:00 0 6826 16.18 15.63 17.03 100 16.1 15.6
2019-06-17 05:00:00 0 6826 15.73 14.94 16.49 100 15.6 14.9
2019-06-17 06:00:00 0.2 6816 16.39 15.53 16.94 100 16.3 15.5
2019-06-17 07:00:00 0 6844 18.07 17.03 19.12 100 18 17
2019-06-17 08:00:00 0 6874 20.37 19.13 21.35 75 0
2019-06-17 09:00:00 0 6914 22.38 21.49 22.95 33.33 7.3 0
2019-06-17 10:00:00 0 6992 26.21 23.63 27.01 6.36 0
2019-06-17 11:00:00 0 7226 27.86 26.79 28.68 67.93 0
2019-06-17 12:00:00 0 7216 29.93 28.96 31.45 65.61 22.5 22
2019-06-17 13:00:00 0 7216 31.62 30.64 33.05 59.01 22.3 21.4
2019-06-17 14:00:00 0 7206 32.72 31.88 33.33 51.69 21.2 20.2
2019-06-17 15:00:00 0 6962 31.81 29.45 33.53 50.61 20 18.1
2019-06-17 16:00:00 0 6864 27.73 25.95 28.31 67.51 20.9 20.1
2019-06-17 17:00:00 0 6874 24.58 23.97 25.52 98.22 24.1 23.5